sensor_id;sensor_type;location;lat;lon;timestamp;P1;durP1;ratioP1;P2;durP2;ratioP2
48925;SDS011;39838;59.938;30.642;2023-09-07T00:00:14;3.63;;;1.83;;
48925;SDS011;39838;59.938;30.642;2023-09-07T00:02:43;3.65;;;2.00;;
48925;SDS011;39838;59.938;30.642;2023-09-07T00:05:12;4.05;;;1.80;;
48925;SDS011;39838;59.938;30.642;2023-09-07T00:07:39;5.75;;;2.25;;
48925;SDS011;39838;59.938;30.642;2023-09-07T00:10:07;4.72;;;2.17;;
48925;SDS011;39838;59.938;30.642;2023-09-07T00:12:34;2.63;;;1.83;;
48925;SDS011;39838;59.938;30.642;2023-09-07T00:15:05;4.82;;;2.20;;
48925;SDS011;39838;59.938;30.642;2023-09-07T00:17:33;4.35;;;2.35;;
48925;SDS011;39838;59.938;30.642;2023-09-07T00:20:00;3.95;;;2.33;;
48925;SDS011;39838;59.938;30.642;2023-09-07T00:22:36;4.97;;;2.50;;
48925;SDS011;39838;59.938;30.642;2023-09-07T00:25:04;5.28;;;2.10;;
48925;SDS011;39838;59.938;30.642;2023-09-07T00:27:32;6.72;;;2.50;;
48925;SDS011;39838;59.938;30.642;2023-09-07T00:30:00;3.15;;;2.10;;
48925;SDS011;39838;59.938;30.642;2023-09-07T00:32:32;3.95;;;2.20;;
48925;SDS011;39838;59.938;30.642;2023-09-07T00:35:00;4.63;;;2.30;;
48925;SDS011;39838;59.938;30.642;2023-09-07T00:37:31;7.30;;;2.60;;
48925;SDS011;39838;59.938;30.642;2023-09-07T00:40:00;4.70;;;2.28;;
48925;SDS011;39838;59.938;30.642;2023-09-07T00:42:30;5.22;;;2.15;;
48925;SDS011;39838;59.938;30.642;2023-09-07T00:44:57;3.30;;;2.10;;
48925;SDS011;39838;59.938;30.642;2023-09-07T00:47:24;4.60;;;2.50;;
48925;SDS011;39838;59.938;30.642;2023-09-07T00:49:52;5.47;;;2.50;;
48925;SDS011;39838;59.938;30.642;2023-09-07T00:52:20;3.92;;;2.40;;
48925;SDS011;39838;59.938;30.642;2023-09-07T00:54:48;6.03;;;2.55;;
48925;SDS011;39838;59.938;30.642;2023-09-07T00:57:17;5.47;;;2.33;;
48925;SDS011;39838;59.938;30.642;2023-09-07T00:59:44;3.42;;;2.30;;
48925;SDS011;39838;59.938;30.642;2023-09-07T01:02:12;4.00;;;2.50;;
48925;SDS011;39838;59.938;30.642;2023-09-07T01:04:39;5.85;;;2.90;;
48925;SDS011;39838;59.938;30.642;2023-09-07T01:07:09;4.53;;;2.70;;
48925;SDS011;39838;59.938;30.642;2023-09-07T01:09:40;4.65;;;2.75;;
48925;SDS011;39838;59.938;30.642;2023-09-07T01:12:13;5.68;;;2.47;;
48925;SDS011;39838;59.938;30.642;2023-09-07T01:14:42;3.17;;;2.17;;
48925;SDS011;39838;59.938;30.642;2023-09-07T01:17:11;5.18;;;2.60;;
48925;SDS011;39838;59.938;30.642;2023-09-07T01:19:39;4.95;;;2.33;;
48925;SDS011;39838;59.938;30.642;2023-09-07T01:22:08;3.83;;;2.50;;
48925;SDS011;39838;59.938;30.642;2023-09-07T01:24:36;6.05;;;2.70;;
48925;SDS011;39838;59.938;30.642;2023-09-07T01:27:05;5.93;;;2.45;;
48925;SDS011;39838;59.938;30.642;2023-09-07T01:29:33;7.78;;;3.70;;
48925;SDS011;39838;59.938;30.642;2023-09-07T01:32:03;11.98;;;6.95;;
48925;SDS011;39838;59.938;30.642;2023-09-07T01:34:30;13.73;;;6.53;;
48925;SDS011;39838;59.938;30.642;2023-09-07T01:36:58;10.75;;;5.30;;
48925;SDS011;39838;59.938;30.642;2023-09-07T01:39:26;9.07;;;4.78;;
48925;SDS011;39838;59.938;30.642;2023-09-07T01:41:54;11.05;;;5.82;;
48925;SDS011;39838;59.938;30.642;2023-09-07T01:44:21;10.85;;;5.18;;
48925;SDS011;39838;59.938;30.642;2023-09-07T01:46:48;11.35;;;6.35;;
48925;SDS011;39838;59.938;30.642;2023-09-07T01:49:16;10.73;;;6.53;;
48925;SDS011;39838;59.938;30.642;2023-09-07T01:51:43;6.40;;;3.72;;
48925;SDS011;39838;59.938;30.642;2023-09-07T01:54:10;9.80;;;4.90;;
48925;SDS011;39838;59.938;30.642;2023-09-07T01:56:39;7.05;;;4.25;;
48925;SDS011;39838;59.938;30.642;2023-09-07T01:59:07;8.00;;;5.15;;
48925;SDS011;39838;59.938;30.642;2023-09-07T02:01:34;8.40;;;4.32;;
48925;SDS011;39838;59.938;30.642;2023-09-07T02:04:03;7.60;;;3.70;;
48925;SDS011;39838;59.938;30.642;2023-09-07T02:06:30;8.23;;;4.00;;
48925;SDS011;39838;59.938;30.642;2023-09-07T02:08:58;7.30;;;3.30;;
48925;SDS011;39838;59.938;30.642;2023-09-07T02:11:25;7.95;;;3.03;;
48925;SDS011;39838;59.938;30.642;2023-09-07T02:13:54;5.47;;;3.03;;
48925;SDS011;39838;59.938;30.642;2023-09-07T02:16:22;5.63;;;3.08;;
48925;SDS011;39838;59.938;30.642;2023-09-07T02:18:49;6.90;;;3.05;;
48925;SDS011;39838;59.938;30.642;2023-09-07T02:21:17;5.97;;;2.80;;
48925;SDS011;39838;59.938;30.642;2023-09-07T02:23:44;6.70;;;3.08;;
48925;SDS011;39838;59.938;30.642;2023-09-07T02:26:11;6.13;;;3.00;;
48925;SDS011;39838;59.938;30.642;2023-09-07T02:28:39;3.92;;;2.50;;
48925;SDS011;39838;59.938;30.642;2023-09-07T02:31:08;4.90;;;2.60;;
48925;SDS011;39838;59.938;30.642;2023-09-07T02:33:35;5.22;;;2.65;;
48925;SDS011;39838;59.938;30.642;2023-09-07T02:36:03;5.47;;;2.50;;
48925;SDS011;39838;59.938;30.642;2023-09-07T02:38:31;6.10;;;2.50;;
48925;SDS011;39838;59.938;30.642;2023-09-07T02:40:58;6.03;;;2.80;;
48925;SDS011;39838;59.938;30.642;2023-09-07T02:43:26;6.28;;;2.85;;
48925;SDS011;39838;59.938;30.642;2023-09-07T02:45:53;6.60;;;2.60;;
48925;SDS011;39838;59.938;30.642;2023-09-07T02:48:22;3.13;;;2.40;;
48925;SDS011;39838;59.938;30.642;2023-09-07T02:50:50;4.60;;;2.80;;
48925;SDS011;39838;59.938;30.642;2023-09-07T02:53:17;3.33;;;2.30;;
48925;SDS011;39838;59.938;30.642;2023-09-07T02:55:44;5.25;;;2.53;;
48925;SDS011;39838;59.938;30.642;2023-09-07T02:58:11;6.45;;;3.00;;
48925;SDS011;39838;59.938;30.642;2023-09-07T03:00:41;5.60;;;2.60;;
48925;SDS011;39838;59.938;30.642;2023-09-07T03:03:09;7.40;;;2.80;;
48925;SDS011;39838;59.938;30.642;2023-09-07T03:05:40;6.38;;;2.85;;
48925;SDS011;39838;59.938;30.642;2023-09-07T03:08:08;6.25;;;2.80;;
48925;SDS011;39838;59.938;30.642;2023-09-07T03:10:35;6.72;;;2.88;;
48925;SDS011;39838;59.938;30.642;2023-09-07T03:13:03;5.18;;;2.35;;
48925;SDS011;39838;59.938;30.642;2023-09-07T03:15:30;5.88;;;2.72;;
48925;SDS011;39838;59.938;30.642;2023-09-07T03:17:58;4.70;;;3.00;;
48925;SDS011;39838;59.938;30.642;2023-09-07T03:20:26;5.82;;;3.10;;
48925;SDS011;39838;59.938;30.642;2023-09-07T03:22:54;4.80;;;2.72;;
48925;SDS011;39838;59.938;30.642;2023-09-07T03:25:23;7.82;;;2.72;;
48925;SDS011;39838;59.938;30.642;2023-09-07T03:27:50;6.18;;;3.00;;
48925;SDS011;39838;59.938;30.642;2023-09-07T03:30:17;5.28;;;2.67;;
48925;SDS011;39838;59.938;30.642;2023-09-07T03:32:44;6.88;;;2.72;;
48925;SDS011;39838;59.938;30.642;2023-09-07T03:35:12;4.60;;;3.00;;
48925;SDS011;39838;59.938;30.642;2023-09-07T03:37:42;5.47;;;2.83;;
48925;SDS011;39838;59.938;30.642;2023-09-07T03:40:11;6.55;;;2.97;;
48925;SDS011;39838;59.938;30.642;2023-09-07T03:42:38;4.57;;;2.78;;
48925;SDS011;39838;59.938;30.642;2023-09-07T03:45:06;8.38;;;3.15;;
48925;SDS011;39838;59.938;30.642;2023-09-07T03:47:33;4.60;;;2.90;;
48925;SDS011;39838;59.938;30.642;2023-09-07T03:50:01;4.15;;;2.80;;
48925;SDS011;39838;59.938;30.642;2023-09-07T03:52:30;5.30;;;3.20;;
48925;SDS011;39838;59.938;30.642;2023-09-07T03:54:57;4.10;;;2.70;;
48925;SDS011;39838;59.938;30.642;2023-09-07T03:57:26;6.00;;;3.00;;
48925;SDS011;39838;59.938;30.642;2023-09-07T03:59:54;5.35;;;2.78;;
48925;SDS011;39838;59.938;30.642;2023-09-07T04:02:22;8.48;;;3.33;;
48925;SDS011;39838;59.938;30.642;2023-09-07T04:04:50;6.97;;;3.03;;
48925;SDS011;39838;59.938;30.642;2023-09-07T04:07:18;9.73;;;3.30;;
48925;SDS011;39838;59.938;30.642;2023-09-07T04:09:46;6.18;;;3.63;;
48925;SDS011;39838;59.938;30.642;2023-09-07T04:12:13;6.38;;;3.15;;
48925;SDS011;39838;59.938;30.642;2023-09-07T04:14:42;6.55;;;2.90;;
48925;SDS011;39838;59.938;30.642;2023-09-07T04:17:10;8.82;;;3.42;;
48925;SDS011;39838;59.938;30.642;2023-09-07T04:19:37;7.65;;;3.10;;
48925;SDS011;39838;59.938;30.642;2023-09-07T04:22:04;6.07;;;3.40;;
48925;SDS011;39838;59.938;30.642;2023-09-07T04:24:32;14.25;;;3.42;;
48925;SDS011;39838;59.938;30.642;2023-09-07T04:26:59;7.10;;;3.90;;
48925;SDS011;39838;59.938;30.642;2023-09-07T04:29:27;7.50;;;3.95;;
48925;SDS011;39838;59.938;30.642;2023-09-07T04:31:56;11.32;;;4.28;;
48925;SDS011;39838;59.938;30.642;2023-09-07T04:34:23;11.20;;;4.47;;
48925;SDS011;39838;59.938;30.642;2023-09-07T04:36:50;15.35;;;4.78;;
48925;SDS011;39838;59.938;30.642;2023-09-07T04:39:18;10.48;;;4.93;;
48925;SDS011;39838;59.938;30.642;2023-09-07T04:41:46;8.93;;;4.35;;
48925;SDS011;39838;59.938;30.642;2023-09-07T04:44:13;8.65;;;4.60;;
48925;SDS011;39838;59.938;30.642;2023-09-07T04:46:41;8.68;;;4.63;;
48925;SDS011;39838;59.938;30.642;2023-09-07T04:49:09;12.02;;;4.88;;
48925;SDS011;39838;59.938;30.642;2023-09-07T04:51:37;10.90;;;4.70;;
48925;SDS011;39838;59.938;30.642;2023-09-07T04:54:04;13.07;;;5.28;;
48925;SDS011;39838;59.938;30.642;2023-09-07T04:56:31;14.05;;;4.85;;
48925;SDS011;39838;59.938;30.642;2023-09-07T04:58:59;17.85;;;5.47;;
48925;SDS011;39838;59.938;30.642;2023-09-07T05:01:26;12.63;;;4.95;;
48925;SDS011;39838;59.938;30.642;2023-09-07T05:03:53;9.80;;;4.88;;
48925;SDS011;39838;59.938;30.642;2023-09-07T05:06:22;16.98;;;5.10;;
48925;SDS011;39838;59.938;30.642;2023-09-07T05:08:51;16.85;;;4.70;;
48925;SDS011;39838;59.938;30.642;2023-09-07T05:11:18;10.50;;;4.28;;
48925;SDS011;39838;59.938;30.642;2023-09-07T05:13:46;8.25;;;4.32;;
48925;SDS011;39838;59.938;30.642;2023-09-07T05:16:13;13.55;;;4.43;;
48925;SDS011;39838;59.938;30.642;2023-09-07T05:18:40;12.63;;;4.20;;
48925;SDS011;39838;59.938;30.642;2023-09-07T05:21:12;8.90;;;4.00;;
48925;SDS011;39838;59.938;30.642;2023-09-07T05:23:41;9.25;;;4.32;;
48925;SDS011;39838;59.938;30.642;2023-09-07T05:26:08;12.85;;;4.40;;
48925;SDS011;39838;59.938;30.642;2023-09-07T05:28:36;13.63;;;3.95;;
48925;SDS011;39838;59.938;30.642;2023-09-07T05:31:03;9.50;;;3.38;;
48925;SDS011;39838;59.938;30.642;2023-09-07T05:33:30;7.38;;;3.83;;
48925;SDS011;39838;59.938;30.642;2023-09-07T05:35:58;8.98;;;4.07;;
48925;SDS011;39838;59.938;30.642;2023-09-07T05:38:27;12.70;;;4.43;;
48925;SDS011;39838;59.938;30.642;2023-09-07T05:40:55;12.00;;;4.10;;
48925;SDS011;39838;59.938;30.642;2023-09-07T05:43:23;19.13;;;4.75;;
48925;SDS011;39838;59.938;30.642;2023-09-07T05:45:50;14.73;;;4.28;;
48925;SDS011;39838;59.938;30.642;2023-09-07T05:48:17;11.82;;;4.10;;
48925;SDS011;39838;59.938;30.642;2023-09-07T05:50:45;13.40;;;4.25;;
48925;SDS011;39838;59.938;30.642;2023-09-07T05:53:12;12.95;;;4.05;;
48925;SDS011;39838;59.938;30.642;2023-09-07T05:55:40;13.32;;;4.28;;
48925;SDS011;39838;59.938;30.642;2023-09-07T05:58:09;11.80;;;3.90;;
48925;SDS011;39838;59.938;30.642;2023-09-07T06:00:37;12.40;;;4.28;;
48925;SDS011;39838;59.938;30.642;2023-09-07T06:03:06;8.82;;;3.72;;
48925;SDS011;39838;59.938;30.642;2023-09-07T06:05:34;13.15;;;4.07;;
48925;SDS011;39838;59.938;30.642;2023-09-07T06:08:04;9.25;;;3.50;;
48925;SDS011;39838;59.938;30.642;2023-09-07T06:10:32;11.20;;;3.92;;
48925;SDS011;39838;59.938;30.642;2023-09-07T06:13:00;8.25;;;3.83;;
48925;SDS011;39838;59.938;30.642;2023-09-07T06:15:29;8.88;;;4.10;;
48925;SDS011;39838;59.938;30.642;2023-09-07T06:17:56;12.20;;;4.05;;
48925;SDS011;39838;59.938;30.642;2023-09-07T06:20:24;7.03;;;3.97;;
48925;SDS011;39838;59.938;30.642;2023-09-07T06:22:51;11.70;;;3.78;;
48925;SDS011;39838;59.938;30.642;2023-09-07T06:25:18;6.45;;;3.08;;
48925;SDS011;39838;59.938;30.642;2023-09-07T06:27:47;8.52;;;3.20;;
48925;SDS011;39838;59.938;30.642;2023-09-07T06:30:14;8.20;;;3.67;;
48925;SDS011;39838;59.938;30.642;2023-09-07T06:32:43;11.88;;;4.95;;
48925;SDS011;39838;59.938;30.642;2023-09-07T06:35:11;11.65;;;4.45;;
48925;SDS011;39838;59.938;30.642;2023-09-07T06:37:38;10.88;;;4.90;;
48925;SDS011;39838;59.938;30.642;2023-09-07T06:40:06;8.90;;;3.72;;
48925;SDS011;39838;59.938;30.642;2023-09-07T06:42:36;6.40;;;3.30;;
48925;SDS011;39838;59.938;30.642;2023-09-07T06:45:04;6.35;;;3.10;;
48925;SDS011;39838;59.938;30.642;2023-09-07T06:47:32;6.40;;;3.60;;
48925;SDS011;39838;59.938;30.642;2023-09-07T06:50:02;10.25;;;4.28;;
48925;SDS011;39838;59.938;30.642;2023-09-07T06:52:31;8.18;;;3.90;;
48925;SDS011;39838;59.938;30.642;2023-09-07T06:54:58;11.02;;;4.40;;
48925;SDS011;39838;59.938;30.642;2023-09-07T06:57:26;7.38;;;2.92;;
48925;SDS011;39838;59.938;30.642;2023-09-07T06:59:53;8.07;;;2.75;;
48925;SDS011;39838;59.938;30.642;2023-09-07T07:02:20;5.70;;;2.90;;
48925;SDS011;39838;59.938;30.642;2023-09-07T07:04:47;5.53;;;2.45;;
48925;SDS011;39838;59.938;30.642;2023-09-07T07:07:16;7.97;;;2.60;;
48925;SDS011;39838;59.938;30.642;2023-09-07T07:09:44;7.65;;;2.50;;
48925;SDS011;39838;59.938;30.642;2023-09-07T07:12:11;8.07;;;2.83;;
48925;SDS011;39838;59.938;30.642;2023-09-07T07:14:38;4.97;;;2.40;;
48925;SDS011;39838;59.938;30.642;2023-09-07T07:17:06;5.50;;;2.10;;
48925;SDS011;39838;59.938;30.642;2023-09-07T07:19:33;4.88;;;2.13;;
48925;SDS011;39838;59.938;30.642;2023-09-07T07:22:00;7.60;;;2.45;;
48925;SDS011;39838;59.938;30.642;2023-09-07T07:24:29;5.28;;;2.20;;
48925;SDS011;39838;59.938;30.642;2023-09-07T07:26:57;7.32;;;2.30;;
48925;SDS011;39838;59.938;30.642;2023-09-07T07:29:24;4.85;;;2.03;;
48925;SDS011;39838;59.938;30.642;2023-09-07T07:31:51;6.38;;;2.25;;
48925;SDS011;39838;59.938;30.642;2023-09-07T07:34:19;6.03;;;2.70;;
48925;SDS011;39838;59.938;30.642;2023-09-07T07:36:46;6.07;;;2.85;;
48925;SDS011;39838;59.938;30.642;2023-09-07T07:39:13;8.57;;;3.17;;
48925;SDS011;39838;59.938;30.642;2023-09-07T07:41:42;8.60;;;3.10;;
48925;SDS011;39838;59.938;30.642;2023-09-07T07:44:11;8.80;;;2.35;;
48925;SDS011;39838;59.938;30.642;2023-09-07T07:46:38;8.70;;;3.22;;
48925;SDS011;39838;59.938;30.642;2023-09-07T07:49:05;4.22;;;1.90;;
48925;SDS011;39838;59.938;30.642;2023-09-07T07:51:32;6.95;;;2.70;;
48925;SDS011;39838;59.938;30.642;2023-09-07T07:54:00;8.73;;;3.95;;
48925;SDS011;39838;59.938;30.642;2023-09-07T07:56:27;7.18;;;2.47;;
48925;SDS011;39838;59.938;30.642;2023-09-07T07:58:56;6.60;;;2.67;;
48925;SDS011;39838;59.938;30.642;2023-09-07T08:01:23;5.30;;;2.58;;
48925;SDS011;39838;59.938;30.642;2023-09-07T08:03:52;5.30;;;2.20;;
48925;SDS011;39838;59.938;30.642;2023-09-07T08:06:19;6.55;;;2.10;;
48925;SDS011;39838;59.938;30.642;2023-09-07T08:08:46;5.78;;;1.90;;
48925;SDS011;39838;59.938;30.642;2023-09-07T08:11:14;4.07;;;1.80;;
48925;SDS011;39838;59.938;30.642;2023-09-07T08:13:42;2.65;;;1.63;;
48925;SDS011;39838;59.938;30.642;2023-09-07T08:16:13;5.85;;;2.00;;
48925;SDS011;39838;59.938;30.642;2023-09-07T08:18:40;3.50;;;1.80;;
48925;SDS011;39838;59.938;30.642;2023-09-07T08:21:07;4.20;;;1.70;;
48925;SDS011;39838;59.938;30.642;2023-09-07T08:23:35;3.58;;;1.98;;
48925;SDS011;39838;59.938;30.642;2023-09-07T08:26:02;10.60;;;2.50;;
48925;SDS011;39838;59.938;30.642;2023-09-07T08:28:30;2.80;;;1.70;;
48925;SDS011;39838;59.938;30.642;2023-09-07T08:30:58;3.60;;;1.60;;
48925;SDS011;39838;59.938;30.642;2023-09-07T08:33:28;7.20;;;2.00;;
48925;SDS011;39838;59.938;30.642;2023-09-07T08:35:58;3.15;;;1.77;;
48925;SDS011;39838;59.938;30.642;2023-09-07T08:38:27;2.58;;;1.90;;
48925;SDS011;39838;59.938;30.642;2023-09-07T08:40:58;4.57;;;2.92;;
48925;SDS011;39838;59.938;30.642;2023-09-07T08:43:30;4.63;;;2.20;;
48925;SDS011;39838;59.938;30.642;2023-09-07T08:46:03;2.92;;;1.67;;
48925;SDS011;39838;59.938;30.642;2023-09-07T08:48:38;2.75;;;1.60;;
48925;SDS011;39838;59.938;30.642;2023-09-07T08:51:09;2.88;;;1.30;;
48925;SDS011;39838;59.938;30.642;2023-09-07T08:53:38;4.43;;;1.77;;
48925;SDS011;39838;59.938;30.642;2023-09-07T08:56:06;4.07;;;1.45;;
48925;SDS011;39838;59.938;30.642;2023-09-07T08:58:35;3.63;;;1.55;;
48925;SDS011;39838;59.938;30.642;2023-09-07T09:01:03;5.07;;;1.70;;
48925;SDS011;39838;59.938;30.642;2023-09-07T09:03:30;7.10;;;1.50;;
48925;SDS011;39838;59.938;30.642;2023-09-07T09:06:01;3.35;;;1.55;;
48925;SDS011;39838;59.938;30.642;2023-09-07T09:08:29;6.35;;;1.63;;
48925;SDS011;39838;59.938;30.642;2023-09-07T09:11:00;3.17;;;1.45;;
48925;SDS011;39838;59.938;30.642;2023-09-07T09:13:29;4.45;;;1.77;;
48925;SDS011;39838;59.938;30.642;2023-09-07T09:15:58;3.78;;;1.60;;
48925;SDS011;39838;59.938;30.642;2023-09-07T09:18:27;5.72;;;1.42;;
48925;SDS011;39838;59.938;30.642;2023-09-07T09:20:55;5.88;;;1.42;;
48925;SDS011;39838;59.938;30.642;2023-09-07T09:23:29;1.73;;;1.30;;
48925;SDS011;39838;59.938;30.642;2023-09-07T09:25:58;2.10;;;1.20;;
48925;SDS011;39838;59.938;30.642;2023-09-07T09:28:26;3.17;;;1.30;;
48925;SDS011;39838;59.938;30.642;2023-09-07T09:30:54;4.13;;;1.33;;
48925;SDS011;39838;59.938;30.642;2023-09-07T09:33:22;3.47;;;1.58;;
48925;SDS011;39838;59.938;30.642;2023-09-07T09:35:49;2.80;;;1.40;;
48925;SDS011;39838;59.938;30.642;2023-09-07T09:38:17;6.80;;;1.67;;
48925;SDS011;39838;59.938;30.642;2023-09-07T09:40:47;4.32;;;1.30;;
48925;SDS011;39838;59.938;30.642;2023-09-07T09:43:14;4.25;;;1.40;;
48925;SDS011;39838;59.938;30.642;2023-09-07T09:45:42;3.95;;;1.48;;
48925;SDS011;39838;59.938;30.642;2023-09-07T09:48:09;3.25;;;1.30;;
48925;SDS011;39838;59.938;30.642;2023-09-07T09:50:37;4.90;;;1.40;;
48925;SDS011;39838;59.938;30.642;2023-09-07T09:53:07;2.75;;;1.58;;
48925;SDS011;39838;59.938;30.642;2023-09-07T09:55:34;4.47;;;1.60;;
48925;SDS011;39838;59.938;30.642;2023-09-07T09:58:03;2.40;;;1.10;;
48925;SDS011;39838;59.938;30.642;2023-09-07T10:00:30;4.45;;;1.30;;
48925;SDS011;39838;59.938;30.642;2023-09-07T10:03:05;2.53;;;1.63;;
48925;SDS011;39838;59.938;30.642;2023-09-07T10:05:36;4.18;;;1.73;;
48925;SDS011;39838;59.938;30.642;2023-09-07T10:08:07;1.73;;;1.02;;
48925;SDS011;39838;59.938;30.642;2023-09-07T10:10:36;2.85;;;1.38;;
48925;SDS011;39838;59.938;30.642;2023-09-07T10:13:05;4.80;;;1.23;;
48925;SDS011;39838;59.938;30.642;2023-09-07T10:15:33;3.30;;;1.75;;
48925;SDS011;39838;59.938;30.642;2023-09-07T10:18:02;4.53;;;2.20;;
48925;SDS011;39838;59.938;30.642;2023-09-07T10:20:46;3.50;;;1.83;;
48925;SDS011;39838;59.938;30.642;2023-09-07T10:23:18;5.60;;;1.50;;
48925;SDS011;39838;59.938;30.642;2023-09-07T10:25:48;4.60;;;1.63;;
48925;SDS011;39838;59.938;30.642;2023-09-07T10:28:19;9.05;;;1.85;;
48925;SDS011;39838;59.938;30.642;2023-09-07T10:30:57;2.72;;;1.48;;
48925;SDS011;39838;59.938;30.642;2023-09-07T10:33:25;3.58;;;1.50;;
48925;SDS011;39838;59.938;30.642;2023-09-07T10:35:53;8.20;;;1.60;;
48925;SDS011;39838;59.938;30.642;2023-09-07T10:38:20;4.35;;;1.42;;
48925;SDS011;39838;59.938;30.642;2023-09-07T10:40:47;4.38;;;1.23;;
48925;SDS011;39838;59.938;30.642;2023-09-07T10:43:24;3.03;;;1.40;;
48925;SDS011;39838;59.938;30.642;2023-09-07T10:45:52;3.58;;;1.33;;
48925;SDS011;39838;59.938;30.642;2023-09-07T10:48:20;5.70;;;1.73;;
48925;SDS011;39838;59.938;30.642;2023-09-07T10:50:48;4.25;;;1.25;;
48925;SDS011;39838;59.938;30.642;2023-09-07T10:53:24;3.30;;;1.45;;
48925;SDS011;39838;59.938;30.642;2023-09-07T10:55:52;5.10;;;1.30;;
48925;SDS011;39838;59.938;30.642;2023-09-07T10:58:29;2.95;;;1.60;;
48925;SDS011;39838;59.938;30.642;2023-09-07T11:00:58;4.40;;;1.50;;
48925;SDS011;39838;59.938;30.642;2023-09-07T11:03:27;4.03;;;1.42;;
48925;SDS011;39838;59.938;30.642;2023-09-07T11:05:55;6.47;;;1.83;;
48925;SDS011;39838;59.938;30.642;2023-09-07T11:08:25;4.65;;;1.63;;
48925;SDS011;39838;59.938;30.642;2023-09-07T11:10:55;2.65;;;1.42;;
48925;SDS011;39838;59.938;30.642;2023-09-07T11:13:23;3.63;;;1.67;;
48925;SDS011;39838;59.938;30.642;2023-09-07T11:15:56;3.92;;;1.63;;
48925;SDS011;39838;59.938;30.642;2023-09-07T11:18:25;4.80;;;1.50;;
48925;SDS011;39838;59.938;30.642;2023-09-07T11:20:53;4.43;;;1.55;;
48925;SDS011;39838;59.938;30.642;2023-09-07T11:23:21;10.35;;;1.60;;
48925;SDS011;39838;59.938;30.642;2023-09-07T11:25:49;2.83;;;1.48;;
48925;SDS011;39838;59.938;30.642;2023-09-07T11:28:17;5.75;;;2.00;;
48925;SDS011;39838;59.938;30.642;2023-09-07T11:30:51;4.35;;;1.58;;
48925;SDS011;39838;59.938;30.642;2023-09-07T11:33:21;3.30;;;1.67;;
48925;SDS011;39838;59.938;30.642;2023-09-07T11:35:49;4.72;;;1.25;;
48925;SDS011;39838;59.938;30.642;2023-09-07T11:38:17;2.45;;;1.58;;
48925;SDS011;39838;59.938;30.642;2023-09-07T11:40:45;4.93;;;1.40;;
48925;SDS011;39838;59.938;30.642;2023-09-07T11:43:12;7.68;;;1.30;;
48925;SDS011;39838;59.938;30.642;2023-09-07T11:45:40;3.95;;;1.20;;
48925;SDS011;39838;59.938;30.642;2023-09-07T11:48:09;3.83;;;1.70;;
48925;SDS011;39838;59.938;30.642;2023-09-07T11:50:38;3.20;;;1.35;;
48925;SDS011;39838;59.938;30.642;2023-09-07T11:53:06;7.63;;;1.70;;
48925;SDS011;39838;59.938;30.642;2023-09-07T11:55:34;3.15;;;1.60;;
48925;SDS011;39838;59.938;30.642;2023-09-07T11:58:02;3.15;;;1.30;;
48925;SDS011;39838;59.938;30.642;2023-09-07T12:00:31;8.00;;;1.88;;
48925;SDS011;39838;59.938;30.642;2023-09-07T12:02:58;3.00;;;1.55;;
48925;SDS011;39838;59.938;30.642;2023-09-07T12:05:26;4.32;;;1.60;;
48925;SDS011;39838;59.938;30.642;2023-09-07T12:07:55;5.43;;;1.60;;
48925;SDS011;39838;59.938;30.642;2023-09-07T12:10:22;5.03;;;1.58;;
48925;SDS011;39838;59.938;30.642;2023-09-07T12:12:49;3.90;;;1.65;;
48925;SDS011;39838;59.938;30.642;2023-09-07T12:15:16;3.33;;;1.67;;
48925;SDS011;39838;59.938;30.642;2023-09-07T12:17:44;3.75;;;1.40;;
48925;SDS011;39838;59.938;30.642;2023-09-07T12:20:12;6.20;;;1.80;;
48925;SDS011;39838;59.938;30.642;2023-09-07T12:22:39;7.82;;;1.77;;
48925;SDS011;39838;59.938;30.642;2023-09-07T12:25:08;9.05;;;1.90;;
48925;SDS011;39838;59.938;30.642;2023-09-07T12:27:36;3.55;;;1.42;;
48925;SDS011;39838;59.938;30.642;2023-09-07T12:30:04;5.75;;;1.52;;
48925;SDS011;39838;59.938;30.642;2023-09-07T12:32:37;5.72;;;1.70;;
48925;SDS011;39838;59.938;30.642;2023-09-07T12:35:05;6.43;;;1.63;;
48925;SDS011;39838;59.938;30.642;2023-09-07T12:37:35;4.43;;;1.77;;
48925;SDS011;39838;59.938;30.642;2023-09-07T12:40:02;7.72;;;1.50;;
48925;SDS011;39838;59.938;30.642;2023-09-07T12:42:39;3.42;;;1.17;;
48925;SDS011;39838;59.938;30.642;2023-09-07T12:45:07;6.32;;;1.20;;
48925;SDS011;39838;59.938;30.642;2023-09-07T12:47:36;4.18;;;1.75;;
48925;SDS011;39838;59.938;30.642;2023-09-07T12:50:03;4.35;;;1.50;;
48925;SDS011;39838;59.938;30.642;2023-09-07T12:52:32;2.80;;;1.30;;
48925;SDS011;39838;59.938;30.642;2023-09-07T12:55:00;4.03;;;1.48;;
48925;SDS011;39838;59.938;30.642;2023-09-07T12:57:30;9.40;;;1.88;;
48925;SDS011;39838;59.938;30.642;2023-09-07T12:59:59;6.80;;;1.65;;
48925;SDS011;39838;59.938;30.642;2023-09-07T13:02:26;6.95;;;1.67;;
48925;SDS011;39838;59.938;30.642;2023-09-07T13:04:53;8.15;;;1.92;;
48925;SDS011;39838;59.938;30.642;2023-09-07T13:07:22;6.10;;;1.58;;
48925;SDS011;39838;59.938;30.642;2023-09-07T13:09:49;4.80;;;1.75;;
48925;SDS011;39838;59.938;30.642;2023-09-07T13:12:16;7.95;;;1.63;;
48925;SDS011;39838;59.938;30.642;2023-09-07T13:14:44;7.00;;;1.33;;
48925;SDS011;39838;59.938;30.642;2023-09-07T13:17:14;5.97;;;1.48;;
48925;SDS011;39838;59.938;30.642;2023-09-07T13:19:41;4.05;;;1.40;;
48925;SDS011;39838;59.938;30.642;2023-09-07T13:22:09;8.10;;;1.55;;
48925;SDS011;39838;59.938;30.642;2023-09-07T13:24:36;6.55;;;1.67;;
48925;SDS011;39838;59.938;30.642;2023-09-07T13:27:04;14.18;;;1.85;;
48925;SDS011;39838;59.938;30.642;2023-09-07T13:29:32;5.28;;;1.35;;
48925;SDS011;39838;59.938;30.642;2023-09-07T13:31:59;2.97;;;1.27;;
48925;SDS011;39838;59.938;30.642;2023-09-07T13:34:28;2.70;;;1.02;;
48925;SDS011;39838;59.938;30.642;2023-09-07T13:36:55;3.38;;;1.25;;
48925;SDS011;39838;59.938;30.642;2023-09-07T13:39:23;6.22;;;2.05;;
48925;SDS011;39838;59.938;30.642;2023-09-07T13:41:50;9.48;;;2.58;;
48925;SDS011;39838;59.938;30.642;2023-09-07T13:44:18;9.00;;;2.40;;
48925;SDS011;39838;59.938;30.642;2023-09-07T13:46:45;9.60;;;1.70;;
48925;SDS011;39838;59.938;30.642;2023-09-07T13:49:13;4.35;;;1.50;;
48925;SDS011;39838;59.938;30.642;2023-09-07T13:51:42;5.63;;;1.55;;
48925;SDS011;39838;59.938;30.642;2023-09-07T13:54:09;6.50;;;1.88;;
48925;SDS011;39838;59.938;30.642;2023-09-07T13:56:37;6.13;;;2.17;;
48925;SDS011;39838;59.938;30.642;2023-09-07T13:59:05;3.67;;;1.35;;
48925;SDS011;39838;59.938;30.642;2023-09-07T14:01:32;4.97;;;1.45;;
48925;SDS011;39838;59.938;30.642;2023-09-07T14:03:59;8.07;;;1.63;;
48925;SDS011;39838;59.938;30.642;2023-09-07T14:06:27;10.70;;;2.00;;
48925;SDS011;39838;59.938;30.642;2023-09-07T14:08:55;11.23;;;2.00;;
48925;SDS011;39838;59.938;30.642;2023-09-07T14:11:23;9.25;;;1.70;;
48925;SDS011;39838;59.938;30.642;2023-09-07T14:13:50;4.00;;;1.48;;
48925;SDS011;39838;59.938;30.642;2023-09-07T14:16:18;4.85;;;1.33;;
48925;SDS011;39838;59.938;30.642;2023-09-07T14:18:46;5.35;;;1.40;;
48925;SDS011;39838;59.938;30.642;2023-09-07T14:21:14;7.20;;;1.60;;
48925;SDS011;39838;59.938;30.642;2023-09-07T14:23:42;5.68;;;1.48;;
48925;SDS011;39838;59.938;30.642;2023-09-07T14:26:11;5.22;;;1.23;;
48925;SDS011;39838;59.938;30.642;2023-09-07T14:28:38;5.95;;;1.40;;
48925;SDS011;39838;59.938;30.642;2023-09-07T14:31:06;4.07;;;1.60;;
48925;SDS011;39838;59.938;30.642;2023-09-07T14:33:34;5.28;;;1.50;;
48925;SDS011;39838;59.938;30.642;2023-09-07T14:36:04;9.02;;;1.77;;
48925;SDS011;39838;59.938;30.642;2023-09-07T14:38:32;12.10;;;1.83;;